createdAt,value
2022-08-29T00:00:18.828Z,20.10
2022-08-29T00:02:49.985Z,20.00
2022-08-29T00:05:19.279Z,20.00
2022-08-29T00:07:51.962Z,20.00
2022-08-29T00:10:20.846Z,20.00
2022-08-29T00:12:49.486Z,19.90
2022-08-29T00:15:18.643Z,19.90
2022-08-29T00:17:47.147Z,19.90
2022-08-29T00:20:20.154Z,19.80
2022-08-29T00:22:49.235Z,19.80
2022-08-29T00:25:18.849Z,19.80
2022-08-29T00:27:49.898Z,19.80
2022-08-29T00:30:20.409Z,19.80
2022-08-29T00:32:49.146Z,19.70
2022-08-29T00:35:19.918Z,19.70
2022-08-29T00:37:48.456Z,19.70
2022-08-29T00:40:21.589Z,19.70
2022-08-29T00:42:50.057Z,19.60
2022-08-29T00:45:19.904Z,19.60
2022-08-29T00:47:52.214Z,19.60
2022-08-29T00:50:32.728Z,19.60
2022-08-29T00:53:02.618Z,19.50
2022-08-29T00:55:34.655Z,19.50
2022-08-29T00:58:07.299Z,19.50
2022-08-29T01:00:36.025Z,19.50
2022-08-29T01:03:05.967Z,19.50
2022-08-29T01:05:36.342Z,19.50
2022-08-29T01:08:05.603Z,19.40
2022-08-29T01:10:54.098Z,19.40
2022-08-29T01:13:27.363Z,19.40
2022-08-29T01:15:56.096Z,19.40
2022-08-29T01:18:25.467Z,19.40
2022-08-29T01:21:09.217Z,19.40
2022-08-29T01:23:42.859Z,19.40
2022-08-29T01:26:13.898Z,19.30
2022-08-29T01:28:44.843Z,19.30
2022-08-29T01:31:37.744Z,19.30
2022-08-29T01:34:04.783Z,19.30
2022-08-29T01:36:36.126Z,19.30
2022-08-29T01:39:04.968Z,19.30
2022-08-29T01:41:35.338Z,19.20
2022-08-29T01:44:10.516Z,19.20
2022-08-29T01:46:39.563Z,19.30
2022-08-29T01:49:10.486Z,19.20
2022-08-29T01:51:39.687Z,19.20
2022-08-29T01:54:09.615Z,19.20
2022-08-29T01:56:41.469Z,19.10
2022-08-29T01:59:12.175Z,19.20
2022-08-29T02:01:44.996Z,19.10
2022-08-29T02:04:13.425Z,19.10
2022-08-29T02:06:41.785Z,19.10
2022-08-29T02:09:11.363Z,19.10
2022-08-29T02:11:41.988Z,19.10
2022-08-29T02:14:19.059Z,19.00
2022-08-29T02:16:48.455Z,19.00
2022-08-29T02:19:17.219Z,19.00
2022-08-29T02:21:45.920Z,19.00
2022-08-29T02:24:25.593Z,19.00
2022-08-29T02:26:58.591Z,18.90
2022-08-29T02:29:37.359Z,18.90
2022-08-29T02:32:07.288Z,18.90
2022-08-29T02:34:37.925Z,18.90
2022-08-29T02:37:07.516Z,18.90
2022-08-29T02:39:36.132Z,18.90
2022-08-29T02:42:06.342Z,18.90
2022-08-29T02:44:35.312Z,18.90
2022-08-29T02:47:03.770Z,18.90
2022-08-29T02:49:32.174Z,18.80
2022-08-29T02:52:00.926Z,18.80
2022-08-29T02:54:29.194Z,18.80
2022-08-29T02:56:57.487Z,18.80
2022-08-29T02:59:27.834Z,18.80
2022-08-29T03:01:56.235Z,18.80
2022-08-29T03:04:24.590Z,18.80
2022-08-29T03:06:53.539Z,18.80
2022-08-29T03:09:21.886Z,18.70
2022-08-29T03:11:52.636Z,18.70
2022-08-29T03:14:20.925Z,18.70
2022-08-29T03:16:50.457Z,18.70
2022-08-29T03:19:19.337Z,18.70
2022-08-29T03:21:47.716Z,18.70
2022-08-29T03:24:16.376Z,18.70
2022-08-29T03:26:56.336Z,18.70
2022-08-29T03:29:26.153Z,18.70
2022-08-29T03:31:58.330Z,18.60
2022-08-29T03:34:27.403Z,18.60
2022-08-29T03:36:55.926Z,18.60
2022-08-29T03:39:24.253Z,18.60
2022-08-29T03:41:52.905Z,18.60
2022-08-29T03:44:21.246Z,18.60
2022-08-29T03:46:49.697Z,18.60
2022-08-29T03:49:19.276Z,18.60
2022-08-29T03:51:50.042Z,18.60
2022-08-29T03:54:18.758Z,18.50
2022-08-29T03:56:47.340Z,18.50
2022-08-29T03:59:16.404Z,18.50
2022-08-29T04:01:47.282Z,18.50
2022-08-29T04:04:36.421Z,18.50
2022-08-29T04:07:07.483Z,18.50
2022-08-29T04:09:35.762Z,18.50
2022-08-29T04:12:04.447Z,18.50
2022-08-29T04:14:32.726Z,18.50
2022-08-29T04:17:01.203Z,18.50
2022-08-29T04:19:29.467Z,18.50
2022-08-29T04:21:57.894Z,18.50
2022-08-29T04:24:27.766Z,18.50
2022-08-29T04:26:56.136Z,18.50
2022-08-29T04:29:24.420Z,18.50
2022-08-29T04:31:52.755Z,18.50
2022-08-29T04:34:21.976Z,18.50
2022-08-29T04:36:50.314Z,18.60
2022-08-29T04:39:20.496Z,18.60
2022-08-29T04:41:50.357Z,18.70
2022-08-29T04:44:18.654Z,18.90
2022-08-29T04:46:47.059Z,19.20
2022-08-29T04:49:15.455Z,19.50
2022-08-29T04:51:43.666Z,20.00
2022-08-29T04:54:12.049Z,20.40
2022-08-29T04:56:47.090Z,20.90
2022-08-29T04:59:18.323Z,21.30
2022-08-29T05:01:48.875Z,21.80
2022-08-29T05:04:17.547Z,22.30
2022-08-29T05:06:46.671Z,22.70
2022-08-29T05:09:19.185Z,23.10
2022-08-29T05:11:47.746Z,23.40
2022-08-29T05:14:17.386Z,23.60
2022-08-29T05:16:45.670Z,23.80
2022-08-29T05:19:16.015Z,24.10
2022-08-29T05:21:44.583Z,24.50
2022-08-29T05:24:13.800Z,25.00
2022-08-29T05:26:45.079Z,25.60
2022-08-29T05:29:14.324Z,26.20
2022-08-29T05:31:45.643Z,26.70
2022-08-29T05:34:33.824Z,27.20
2022-08-29T05:37:03.396Z,27.70
2022-08-29T05:39:31.854Z,28.20
2022-08-29T05:42:00.733Z,28.70
2022-08-29T05:44:35.220Z,29.20
2022-08-29T05:47:06.751Z,29.80
2022-08-29T05:49:37.537Z,30.30
2022-08-29T05:52:06.701Z,30.80
2022-08-29T05:54:38.026Z,31.30
2022-08-29T05:57:07.605Z,31.70
2022-08-29T05:59:36.845Z,32.20
2022-08-29T06:02:07.785Z,32.50
2022-08-29T06:04:36.379Z,32.60
2022-08-29T06:07:05.894Z,32.50
2022-08-29T06:09:34.706Z,32.50
2022-08-29T06:12:03.093Z,32.70
2022-08-29T06:14:31.604Z,32.80
2022-08-29T06:17:00.073Z,33.20
2022-08-29T06:19:34.729Z,33.50
2022-08-29T06:22:09.733Z,33.80
2022-08-29T06:24:39.765Z,34.10
2022-08-29T06:27:08.099Z,34.40
2022-08-29T06:29:43.142Z,34.70
2022-08-29T06:32:12.505Z,34.90
2022-08-29T06:34:42.417Z,35.00
2022-08-29T06:37:11.228Z,35.30
2022-08-29T06:39:39.956Z,35.50
2022-08-29T06:42:08.478Z,35.60
2022-08-29T06:44:40.193Z,35.70
2022-08-29T06:47:10.936Z,35.70
2022-08-29T06:49:39.258Z,35.70
2022-08-29T06:52:08.976Z,35.80
2022-08-29T06:54:37.374Z,35.90
2022-08-29T06:57:06.437Z,35.90
2022-08-29T06:59:34.775Z,35.90
2022-08-29T07:02:03.203Z,35.80
2022-08-29T07:04:32.758Z,35.70
2022-08-29T07:07:02.042Z,35.80
2022-08-29T07:09:32.389Z,35.90
2022-08-29T07:12:00.767Z,36.30
2022-08-29T07:14:29.066Z,36.60
2022-08-29T07:16:57.676Z,37.00
2022-08-29T07:19:26.035Z,37.40
2022-08-29T07:21:58.119Z,37.60
2022-08-29T07:24:26.866Z,37.80
2022-08-29T07:26:56.724Z,37.70
2022-08-29T07:29:25.039Z,37.70
2022-08-29T07:31:53.855Z,37.80
2022-08-29T07:34:22.766Z,38.10
2022-08-29T07:36:51.136Z,38.40
2022-08-29T07:39:22.137Z,38.70
2022-08-29T07:41:50.975Z,39.00
2022-08-29T07:44:20.613Z,39.40
2022-08-29T07:46:49.653Z,39.60
2022-08-29T07:49:17.970Z,39.80
2022-08-29T07:51:46.234Z,40.10
2022-08-29T07:54:16.694Z,40.40
2022-08-29T07:56:45.704Z,40.50
2022-08-29T07:59:14.455Z,40.60
2022-08-29T08:01:45.356Z,40.70
2022-08-29T08:04:14.077Z,40.80
2022-08-29T08:06:45.227Z,40.80
2022-08-29T08:09:15.366Z,40.90
2022-08-29T08:11:44.196Z,41.00
2022-08-29T08:14:13.865Z,41.20
2022-08-29T08:16:44.835Z,41.40
2022-08-29T08:19:14.346Z,41.60
2022-08-29T08:21:49.382Z,41.80
2022-08-29T08:24:19.997Z,41.80
2022-08-29T08:26:48.990Z,41.90
2022-08-29T08:29:17.499Z,41.90
2022-08-29T08:31:48.936Z,41.90
2022-08-29T08:34:18.005Z,41.80
2022-08-29T08:36:47.377Z,41.60
2022-08-29T08:39:16.049Z,41.40
2022-08-29T08:41:53.535Z,41.30
2022-08-29T08:44:59.035Z,41.20
2022-08-29T08:47:33.434Z,41.10
2022-08-29T08:50:07.837Z,41.10
2022-08-29T08:52:42.907Z,41.10
2022-08-29T08:55:28.299Z,41.20
2022-08-29T08:58:06.507Z,41.40
2022-08-29T09:00:43.166Z,41.50
2022-08-29T09:03:26.864Z,41.50
2022-08-29T09:06:08.299Z,41.40
2022-08-29T09:08:48.447Z,41.40
2022-08-29T09:11:23.818Z,41.40
2022-08-29T09:14:01.055Z,41.50
2022-08-29T09:16:34.778Z,41.70
2022-08-29T09:19:08.254Z,41.80
2022-08-29T09:21:44.994Z,42.10
2022-08-29T09:24:21.835Z,42.40
2022-08-29T09:26:50.653Z,42.50
2022-08-29T09:29:21.128Z,42.60
2022-08-29T09:32:08.458Z,42.80
2022-08-29T09:35:07.545Z,43.00
2022-08-29T09:37:33.462Z,43.00
2022-08-29T09:40:07.300Z,43.00
2022-08-29T09:42:37.775Z,43.10
2022-08-29T09:45:18.915Z,43.20
2022-08-29T09:47:47.374Z,43.40
2022-08-29T09:50:26.204Z,43.20
2022-08-29T09:52:56.338Z,43.00
2022-08-29T09:55:29.806Z,42.70
2022-08-29T09:58:02.441Z,42.60
2022-08-29T10:00:35.527Z,42.50
2022-08-29T10:03:06.633Z,42.50
2022-08-29T10:05:44.514Z,42.60
2022-08-29T10:08:30.594Z,42.60
2022-08-29T10:11:00.803Z,42.60
2022-08-29T10:13:36.116Z,42.50
2022-08-29T10:16:13.982Z,42.60
2022-08-29T10:18:48.072Z,42.60
2022-08-29T10:21:37.099Z,42.70
2022-08-29T10:24:28.536Z,42.80
2022-08-29T10:27:06.546Z,42.80
2022-08-29T10:29:56.266Z,42.90
2022-08-29T10:32:44.536Z,43.00
2022-08-29T10:35:18.266Z,43.00
2022-08-29T10:37:55.074Z,42.90
2022-08-29T10:40:29.429Z,43.00
2022-08-29T10:43:17.714Z,43.00
2022-08-29T10:45:58.086Z,43.00
2022-08-29T10:48:31.443Z,43.00
2022-08-29T10:51:17.294Z,42.60
2022-08-29T10:53:52.008Z,42.40
2022-08-29T10:56:23.945Z,42.20
2022-08-29T10:59:04.285Z,42.00
2022-08-29T11:01:36.447Z,42.00
2022-08-29T11:04:17.976Z,41.90
2022-08-29T11:06:55.357Z,41.90
2022-08-29T11:09:30.876Z,41.60
2022-08-29T11:12:09.086Z,41.10
2022-08-29T11:14:41.827Z,40.50
2022-08-29T11:17:14.644Z,39.90
2022-08-29T11:19:59.089Z,39.50
2022-08-29T11:22:32.434Z,39.30
2022-08-29T11:25:08.874Z,39.30
2022-08-29T11:27:47.218Z,39.50
2022-08-29T11:30:21.613Z,39.60
2022-08-29T11:33:00.836Z,39.80
2022-08-29T11:35:41.993Z,39.90
2022-08-29T11:38:42.547Z,40.00
2022-08-29T11:41:28.910Z,39.80
2022-08-29T11:44:08.555Z,39.40
2022-08-29T11:46:43.542Z,38.80
2022-08-29T11:49:28.578Z,38.40
2022-08-29T11:51:59.537Z,38.10
2022-08-29T11:54:52.138Z,37.80
2022-08-29T11:58:03.860Z,37.60
2022-08-29T12:00:51.354Z,37.30
2022-08-29T12:03:53.844Z,37.10
2022-08-29T12:06:45.085Z,37.00
2022-08-29T12:09:41.019Z,37.20
2022-08-29T12:12:20.237Z,37.30
2022-08-29T12:14:50.130Z,37.40
2022-08-29T12:18:00.796Z,37.60
2022-08-29T12:20:44.435Z,38.00
2022-08-29T12:23:36.254Z,38.40
2022-08-29T12:26:23.078Z,38.80
2022-08-29T12:29:00.199Z,39.10
2022-08-29T12:32:18.845Z,39.60
2022-08-29T12:35:16.485Z,40.00
2022-08-29T12:38:03.292Z,40.30
2022-08-29T12:40:53.917Z,40.50
2022-08-29T12:43:35.836Z,40.30
2022-08-29T12:46:09.685Z,40.10
2022-08-29T12:48:43.236Z,39.80
2022-08-29T12:51:35.794Z,39.70
2022-08-29T12:54:04.236Z,39.60
2022-08-29T12:56:34.528Z,39.60
2022-08-29T12:59:06.086Z,39.80
2022-08-29T13:01:38.490Z,40.00
2022-08-29T13:04:14.803Z,40.10
2022-08-29T13:06:55.476Z,40.30
2022-08-29T13:09:29.253Z,40.50
2022-08-29T13:12:12.497Z,40.70
2022-08-29T13:14:57.445Z,40.90
2022-08-29T13:17:28.916Z,41.10
2022-08-29T13:20:34.226Z,41.20
2022-08-29T13:23:24.767Z,41.40
2022-08-29T13:25:57.323Z,41.50
2022-08-29T13:28:31.797Z,41.60
2022-08-29T13:31:32.434Z,41.50
2022-08-29T13:34:26.887Z,41.40
2022-08-29T13:37:02.229Z,41.20
2022-08-29T13:39:41.347Z,41.10
2022-08-29T13:42:32.684Z,41.10
2022-08-29T13:45:10.412Z,41.10
2022-08-29T13:47:56.386Z,41.20
2022-08-29T13:50:25.927Z,41.20
2022-08-29T13:52:54.993Z,41.20
2022-08-29T13:55:25.306Z,41.20
2022-08-29T13:57:55.715Z,41.20
2022-08-29T14:00:32.465Z,41.20
2022-08-29T14:03:09.306Z,41.20
2022-08-29T14:05:38.818Z,41.20
2022-08-29T14:08:07.886Z,41.30
2022-08-29T14:10:37.517Z,41.20
2022-08-29T14:13:06.757Z,41.10
2022-08-29T14:15:35.476Z,40.80
2022-08-29T14:18:05.500Z,40.50
2022-08-29T14:20:33.904Z,40.20
2022-08-29T14:23:02.279Z,39.90
2022-08-29T14:25:30.924Z,39.50
2022-08-29T14:28:00.716Z,39.00
2022-08-29T14:30:29.124Z,38.50
2022-08-29T14:32:57.376Z,38.00
2022-08-29T14:35:31.497Z,37.50
2022-08-29T14:38:01.062Z,36.90
2022-08-29T14:40:30.541Z,36.40
2022-08-29T14:43:00.742Z,35.80
2022-08-29T14:45:30.788Z,35.30
2022-08-29T14:48:00.363Z,34.80
2022-08-29T14:50:28.822Z,34.40
2022-08-29T14:52:57.267Z,34.00
2022-08-29T14:55:25.814Z,33.60
2022-08-29T14:57:54.409Z,33.30
2022-08-29T15:00:27.687Z,33.10
2022-08-29T15:02:56.741Z,32.80
2022-08-29T15:05:25.589Z,32.50
2022-08-29T15:07:53.978Z,32.20
2022-08-29T15:10:25.639Z,31.90
2022-08-29T15:12:54.744Z,31.70
2022-08-29T15:15:29.502Z,31.40
2022-08-29T15:17:58.813Z,31.20
2022-08-29T15:20:36.241Z,31.00
2022-08-29T15:23:06.023Z,30.80
2022-08-29T15:25:34.383Z,30.60
2022-08-29T15:28:03.196Z,30.40
2022-08-29T15:30:33.312Z,30.30
2022-08-29T15:33:01.635Z,30.20
2022-08-29T15:35:30.147Z,30.20
2022-08-29T15:37:58.473Z,30.10
2022-08-29T15:40:27.198Z,30.00
2022-08-29T15:42:55.650Z,29.90
2022-08-29T15:45:23.996Z,29.90
2022-08-29T15:47:54.136Z,29.90
2022-08-29T15:50:24.477Z,29.80
2022-08-29T15:52:53.584Z,29.80
2022-08-29T15:55:22.505Z,29.70
2022-08-29T15:57:52.287Z,29.70
2022-08-29T16:00:30.421Z,29.70
2022-08-29T16:03:03.369Z,29.60
2022-08-29T16:05:33.334Z,29.60
2022-08-29T16:08:02.337Z,29.50
2022-08-29T16:10:31.374Z,29.50
2022-08-29T16:13:00.245Z,29.40
2022-08-29T16:15:31.254Z,29.40
2022-08-29T16:18:02.285Z,29.30
2022-08-29T16:20:32.021Z,29.30
2022-08-29T16:23:01.497Z,29.20
2022-08-29T16:25:31.840Z,29.10
2022-08-29T16:28:01.437Z,29.00
2022-08-29T16:30:32.047Z,28.80
2022-08-29T16:33:02.136Z,28.70
2022-08-29T16:35:30.606Z,28.60
2022-08-29T16:38:03.097Z,28.50
2022-08-29T16:40:32.691Z,28.50
2022-08-29T16:43:02.759Z,28.30
2022-08-29T16:45:31.775Z,28.20
2022-08-29T16:48:01.424Z,28.20
2022-08-29T16:50:32.745Z,28.10
2022-08-29T16:53:02.167Z,28.00
2022-08-29T16:55:31.287Z,27.90
2022-08-29T16:58:31.925Z,27.80
2022-08-29T17:01:01.362Z,27.70
2022-08-29T17:03:31.036Z,27.60
2022-08-29T17:05:59.505Z,27.50
2022-08-29T17:08:26.747Z,27.40
2022-08-29T17:10:53.974Z,27.30
2022-08-29T17:13:21.204Z,27.20
2022-08-29T17:15:48.526Z,27.10
2022-08-29T17:18:17.213Z,27.00
2022-08-29T17:20:48.449Z,26.90
2022-08-29T17:23:17.119Z,26.80
2022-08-29T17:25:45.502Z,26.70
2022-08-29T17:28:18.130Z,26.60
2022-08-29T17:30:48.775Z,26.50
2022-08-29T17:33:17.534Z,26.40
2022-08-29T17:35:47.950Z,26.30
2022-08-29T17:38:17.059Z,26.20
2022-08-29T17:40:47.502Z,26.20
2022-08-29T17:43:19.429Z,26.10
2022-08-29T17:45:48.590Z,25.90
2022-08-29T17:48:17.571Z,25.80
2022-08-29T17:50:47.507Z,25.70
2022-08-29T17:53:16.356Z,25.60
2022-08-29T17:55:44.715Z,25.40
2022-08-29T17:58:13.874Z,25.30
2022-08-29T18:00:42.314Z,25.30
2022-08-29T18:03:10.662Z,25.20
2022-08-29T18:05:39.250Z,25.10
2022-08-29T18:08:08.988Z,25.00
2022-08-29T18:10:38.574Z,24.90
2022-08-29T18:13:06.972Z,24.80
2022-08-29T18:15:35.673Z,24.80
2022-08-29T18:18:05.394Z,24.70
2022-08-29T18:20:33.786Z,24.60
2022-08-29T18:23:02.188Z,24.60
2022-08-29T18:25:32.050Z,24.50
2022-08-29T18:28:00.355Z,24.40
2022-08-29T18:30:29.078Z,24.40
2022-08-29T18:32:57.446Z,24.30
2022-08-29T18:35:25.909Z,24.20
2022-08-29T18:37:54.439Z,24.20
2022-08-29T18:40:23.233Z,24.10
2022-08-29T18:42:53.708Z,24.00
2022-08-29T18:45:22.215Z,24.00
2022-08-29T18:47:50.724Z,23.90
2022-08-29T18:50:37.614Z,23.90
2022-08-29T18:53:11.398Z,23.80
2022-08-29T18:55:40.677Z,23.80
2022-08-29T18:58:11.526Z,23.70
2022-08-29T19:00:39.960Z,23.60
2022-08-29T19:03:08.327Z,23.60
2022-08-29T19:05:38.103Z,23.60
2022-08-29T19:08:07.096Z,23.50
2022-08-29T19:10:35.573Z,23.50
2022-08-29T19:13:07.842Z,23.40
2022-08-29T19:15:41.380Z,23.40
2022-08-29T19:18:11.557Z,23.30
2022-08-29T19:20:58.995Z,23.30
2022-08-29T19:23:27.685Z,23.30
2022-08-29T19:25:56.259Z,23.20
2022-08-29T19:28:25.045Z,23.10
2022-08-29T19:30:55.491Z,23.10
2022-08-29T19:33:24.620Z,23.10
2022-08-29T19:35:53.736Z,23.00
2022-08-29T19:38:24.296Z,23.00
2022-08-29T19:40:57.095Z,22.90
2022-08-29T19:43:27.785Z,22.90
2022-08-29T19:45:59.143Z,22.80
2022-08-29T19:48:28.865Z,22.70
2022-08-29T19:50:58.376Z,22.70
2022-08-29T19:53:27.211Z,22.60
2022-08-29T19:55:56.468Z,22.60
2022-08-29T19:58:31.932Z,22.50
2022-08-29T20:01:03.017Z,22.50
2022-08-29T20:03:32.199Z,22.40
2022-08-29T20:06:05.758Z,22.40
2022-08-29T20:08:36.233Z,22.40
2022-08-29T20:11:06.594Z,22.30
2022-08-29T20:13:36.342Z,22.30
2022-08-29T20:16:12.058Z,22.20
2022-08-29T20:18:41.492Z,22.20
2022-08-29T20:21:10.530Z,22.20
2022-08-29T20:23:41.397Z,22.10
2022-08-29T20:26:17.574Z,22.10
2022-08-29T20:28:45.962Z,22.00
2022-08-29T20:31:16.590Z,22.00
2022-08-29T20:33:47.425Z,21.90
2022-08-29T20:36:33.696Z,21.80
2022-08-29T20:39:08.473Z,21.70
2022-08-29T20:41:36.986Z,21.60
2022-08-29T20:44:09.885Z,21.60
2022-08-29T20:46:43.429Z,21.50
2022-08-29T20:49:14.466Z,21.50
2022-08-29T20:51:44.530Z,21.40
2022-08-29T20:54:14.125Z,21.40
2022-08-29T20:56:42.558Z,21.40
2022-08-29T20:59:11.446Z,21.30
2022-08-29T21:01:40.353Z,21.40
2022-08-29T21:04:28.605Z,21.30
2022-08-29T21:06:58.837Z,21.30
2022-08-29T21:09:27.687Z,21.30
2022-08-29T21:11:56.536Z,21.30
2022-08-29T21:14:27.155Z,21.30
2022-08-29T21:16:56.779Z,21.30
2022-08-29T21:19:29.923Z,21.30
2022-08-29T21:21:59.976Z,21.30
2022-08-29T21:24:28.909Z,21.20
2022-08-29T21:26:58.056Z,21.20
2022-08-29T21:29:26.547Z,21.20
2022-08-29T21:31:55.048Z,21.20
2022-08-29T21:34:24.166Z,21.20
2022-08-29T21:36:54.457Z,21.20
2022-08-29T21:39:28.435Z,21.20
2022-08-29T21:42:00.953Z,21.20
2022-08-29T21:44:31.721Z,21.20
2022-08-29T21:47:00.252Z,21.10
2022-08-29T21:49:30.352Z,21.10
2022-08-29T21:52:00.836Z,21.10
2022-08-29T21:54:29.243Z,21.10
2022-08-29T21:56:57.577Z,21.00
2022-08-29T21:59:28.369Z,21.00
2022-08-29T22:01:57.179Z,20.90
2022-08-29T22:04:28.560Z,20.90
2022-08-29T22:07:00.100Z,20.90
2022-08-29T22:09:29.025Z,20.80
2022-08-29T22:11:57.434Z,20.80
2022-08-29T22:14:46.726Z,20.80
2022-08-29T22:17:15.427Z,20.80
2022-08-29T22:19:43.855Z,20.80
2022-08-29T22:22:13.436Z,20.80
2022-08-29T22:24:41.850Z,20.70
2022-08-29T22:27:10.247Z,20.70
2022-08-29T22:29:38.642Z,20.80
2022-08-29T22:32:07.060Z,20.70
2022-08-29T22:34:35.496Z,20.70
2022-08-29T22:37:03.775Z,20.70
2022-08-29T22:39:33.417Z,20.70
2022-08-29T22:42:01.816Z,20.60
2022-08-29T22:47:19.943Z,20.60
2022-08-29T22:49:48.338Z,20.60
2022-08-29T22:52:16.654Z,20.50
2022-08-29T22:54:47.105Z,20.50
2022-08-29T22:57:17.825Z,20.50
2022-08-29T22:59:47.591Z,20.40
2022-08-29T23:02:16.537Z,20.40
2022-08-29T23:04:45.228Z,20.40
2022-08-29T23:07:14.084Z,20.30
2022-08-29T23:09:43.245Z,20.30
2022-08-29T23:12:14.552Z,20.30
2022-08-29T23:14:46.429Z,20.30
2022-08-29T23:17:15.566Z,20.20
2022-08-29T23:19:44.725Z,20.20
2022-08-29T23:22:14.773Z,20.20
2022-08-29T23:24:53.952Z,20.10
2022-08-29T23:27:29.513Z,20.10
2022-08-29T23:29:58.800Z,20.10
2022-08-29T23:32:27.835Z,20.00
2022-08-29T23:34:56.899Z,20.00
2022-08-29T23:37:25.333Z,20.00
2022-08-29T23:39:53.806Z,20.00
2022-08-29T23:42:22.427Z,19.90
2022-08-29T23:44:52.059Z,19.90
2022-08-29T23:47:20.688Z,19.90
2022-08-29T23:49:49.145Z,19.90
2022-08-29T23:52:17.416Z,19.80
2022-08-29T23:54:45.749Z,19.80
2022-08-29T23:57:14.004Z,19.80
